aviador You're here:

OISY Decoded Metar

in _UNIDENTIFIED
Report Time2017-08-22 10:00:00
UTC Time2017-08-22 11:06:04
Flight Rules vfr VFR
Wind160° at 06 kt
W.Decomp.*RWY 13: 5.3 kt HW 2.8 kt RCW
W.Rank160° ranks 18
Current wind is below 160° avg. (6.2)
Visibility9999 m
Phenomena:N/A
Clouds:Few 040 Hf
Expected CloudBase > 12,800 ft AGL from Temp-Dew spread
CeilingNone
Temp32°C
Dew Point00°C (13% RH)
Heat Index29.8°C
AAT27.9°C
QNH1016 hPa
Raw Report
METAR OISY 221000Z 16006KT 9999 FEW040 32/M00 Q1016=

Extra information for OISY:More info

Metar Taf Metar & Taf Last 4 Metars F.Rules Stats Wind Profile Meteogram Temp Stats Metar ALERT Operation Metar Decoded Social comments